地図

経路データ

SID SEASON NUMBER BASIN SUBBASIN NAME ISO_TIME NATURE LAT LON WMO_WIND WMO_PRES WMO_AGENCY TRACK_TYPE DIST2LAND LANDFALL IFLAG USA_AGENCY USA_ATCF_ID USA_LAT USA_LON USA_RECORD USA_STATUS USA_WIND USA_PRES USA_SSHS USA_R34_NE USA_R34_SE USA_R34_SW USA_R34_NW USA_R50_NE USA_R50_SE USA_R50_SW USA_R50_NW USA_R64_NE USA_R64_SE USA_R64_SW USA_R64_NW USA_POCI USA_ROCI USA_RMW USA_EYE TOKYO_LAT TOKYO_LON TOKYO_GRADE TOKYO_WIND TOKYO_PRES TOKYO_R50_DIR TOKYO_R50_LONG TOKYO_R50_SHORT TOKYO_R30_DIR TOKYO_R30_LONG TOKYO_R30_SHORT TOKYO_LAND CMA_LAT CMA_LON CMA_CAT CMA_WIND CMA_PRES HKO_LAT HKO_LON HKO_CAT HKO_WIND HKO_PRES NEWDELHI_LAT NEWDELHI_LON NEWDELHI_GRADE NEWDELHI_WIND NEWDELHI_PRES NEWDELHI_CI NEWDELHI_DP NEWDELHI_POCI REUNION_LAT REUNION_LON REUNION_TYPE REUNION_WIND REUNION_PRES REUNION_TNUM REUNION_CI REUNION_RMW REUNION_R34_NE REUNION_R34_SE REUNION_R34_SW REUNION_R34_NW REUNION_R50_NE REUNION_R50_SE REUNION_R50_SW REUNION_R50_NW REUNION_R64_NE REUNION_R64_SE REUNION_R64_SW REUNION_R64_NW BOM_LAT BOM_LON BOM_TYPE BOM_WIND BOM_PRES BOM_TNUM BOM_CI BOM_RMW BOM_R34_NE BOM_R34_SE BOM_R34_SW BOM_R34_NW BOM_R50_NE BOM_R50_SE BOM_R50_SW BOM_R50_NW BOM_R64_NE BOM_R64_SE BOM_R64_SW BOM_R64_NW BOM_ROCI BOM_POCI BOM_EYE BOM_POS_METHOD BOM_PRES_METHOD NADI_LAT NADI_LON NADI_CAT NADI_WIND NADI_PRES WELLINGTON_LAT WELLINGTON_LON WELLINGTON_WIND WELLINGTON_PRES DS824_LAT DS824_LON DS824_STAGE DS824_WIND DS824_PRES TD9636_LAT TD9636_LON TD9636_STAGE TD9636_WIND TD9636_PRES TD9635_LAT TD9635_LON TD9635_WIND TD9635_PRES TD9635_ROCI NEUMANN_LAT NEUMANN_LON NEUMANN_CLASS NEUMANN_WIND NEUMANN_PRES MLC_LAT MLC_LON MLC_CLASS MLC_WIND MLC_PRES USA_GUST BOM_GUST BOM_GUST_PER REUNION_GUST REUNION_GUST_PER USA_SEAHGT USA_SEARAD_NE USA_SEARAD_SE USA_SEARAD_SW USA_SEARAD_NW STORM_SPEED STORM_DIR
1985244N14254 1985 80 EP MM RICK 1985-09-01 00:00:00 TS 14.1000 -106.500 25 hurdat_epa main 568 568 O_________O___ hurdat_epa EP171985 14.1000 -106.500 TD 25 -1 14.1000 -106.500 1 25 12 274
1985244N14254 1985 80 EP MM RICK 1985-09-01 03:00:00 TS 14.1442 -107.101 main 607 605 P_________P___ EP171985 14.1154 -107.115 TD 25 -1 14.2304 -107.059 1 26 12 277
1985244N14254 1985 80 EP MM RICK 1985-09-01 06:00:00 TS 14.2395 -107.681 25 hurdat_epa main 639 629 O_________P___ hurdat_epa EP171985 14.2000 -107.700 TD 25 -1 14.3582 -107.625 1 27 11 284
1985244N14254 1985 80 EP MM RICK 1985-09-01 09:00:00 TS 14.4146 -108.233 main 647 647 P_________P___ EP171985 14.3922 -108.242 TD 27 -1 14.4818 -108.203 1 28 11 288
1985244N14254 1985 80 EP MM RICK 1985-09-01 12:00:00 TS 14.6000 -108.800 30 hurdat_epa main 667 667 O_________O___ hurdat_epa EP171985 14.6000 -108.800 TD 30 -1 14.6000 -108.800 1 30 12 284
1985244N14254 1985 80 EP MM RICK 1985-09-01 15:00:00 TS 14.7141 -109.442 main 702 702 P_________P___ EP171985 14.7151 -109.450 TD 30 -1 14.7113 -109.417 1 30 13 279
1985244N14254 1985 80 EP MM RICK 1985-09-01 18:00:00 TS 14.8038 -110.084 30 hurdat_epa main 747 747 O_________P___ hurdat_epa EP171985 14.8000 -110.100 TD 30 -1 14.8151 -110.038 1 30 12 279
1985244N14254 1985 80 EP MM RICK 1985-09-01 21:00:00 TS 14.8971 -110.670 main 785 785 P_________P___ EP171985 14.8924 -110.680 TD 30 -1 14.9114 -110.639 1 30 11 280
1985244N14254 1985 80 EP MM RICK 1985-09-02 00:00:00 TS 15.0000 -111.200 30 hurdat_epa main 817 817 O_________O___ hurdat_epa EP171985 15.0000 -111.200 TD 30 -1 15.0000 -111.200 1 30 10 285
1985244N14254 1985 80 EP MM RICK 1985-09-02 03:00:00 TS 15.1521 -111.673 main 845 845 P_________P___ EP171985 15.1648 -111.665 TD 30 -1 15.1140 -111.697 1 31 9 288
1985244N14254 1985 80 EP MM RICK 1985-09-02 06:00:00 TS 15.2792 -112.113 30 hurdat_epa main 873 873 O_________P___ hurdat_epa EP171985 15.3000 -112.100 TD 30 -1 15.2166 -112.152 1 32 9 281
1985244N14254 1985 80 EP MM RICK 1985-09-02 09:00:00 TS 15.3246 -112.558 main 892 892 P_________P___ EP171985 15.3374 -112.550 TD 32 -1 15.2860 -112.581 1 33 9 271
1985244N14254 1985 80 EP MM RICK 1985-09-02 12:00:00 TS 15.3000 -113.000 35 hurdat_epa main 906 906 O_________O___ hurdat_epa EP171985 15.3000 -113.000 TS 35 0 15.3000 -113.000 2 35 9 264
1985244N14254 1985 80 EP MM RICK 1985-09-02 15:00:00 TS 15.2280 -113.457 main 936 936 P_________P___ EP171985 15.2225 -113.458 TS 37 0 15.2447 -113.457 2 36 9 258
1985244N14254 1985 80 EP MM RICK 1985-09-02 18:00:00 TS 15.1081 -113.901 40 hurdat_epa main 963 963 O_________P___ hurdat_epa EP171985 15.1000 -113.900 TS 40 0 15.1325 -113.903 2 37 9 253
1985244N14254 1985 80 EP MM RICK 1985-09-02 21:00:00 TS 14.9685 -114.322 main 992 992 P_________P___ EP171985 14.9650 -114.322 TS 40 0 14.9791 -114.322 2 38 8 248
1985244N14254 1985 80 EP MM RICK 1985-09-03 00:00:00 TS 14.8000 -114.700 40 hurdat_epa main 1032 1032 O_________O___ hurdat_epa EP171985 14.8000 -114.700 TS 40 0 14.8000 -114.700 2 40 8 242
1985244N14254 1985 80 EP MM RICK 1985-09-03 03:00:00 TS 14.6098 -115.016 main 1067 1067 P_________P___ EP171985 14.6074 -115.022 TS 40 0 14.6169 -114.998 2 41 7 235
1985244N14254 1985 80 EP MM RICK 1985-09-03 06:00:00 TS 14.4036 -115.289 40 hurdat_epa main 1102 1102 O_________P___ hurdat_epa EP171985 14.4000 -115.300 TS 40 0 14.4142 -115.257 2 42 7 231
1985244N14254 1985 80 EP MM RICK 1985-09-03 09:00:00 TS 14.1954 -115.541 main 1132 1132 P_________P___ EP171985 14.1924 -115.550 TS 42 0 14.2044 -115.513 2 43 6 231
1985244N14254 1985 80 EP MM RICK 1985-09-03 12:00:00 TS 14.0000 -115.800 45 hurdat_epa main 1168 1168 O_________O___ hurdat_epa EP171985 14.0000 -115.800 TS 45 0 14.0000 -115.800 2 45 6 236
1985244N14254 1985 80 EP MM RICK 1985-09-03 15:00:00 TS 13.8397 -116.082 main 1204 1204 P_________P___ EP171985 13.8499 -116.062 TS 47 0 13.8094 -116.140 2 46 7 243
1985244N14254 1985 80 EP MM RICK 1985-09-03 18:00:00 TS 13.6818 -116.429 50 hurdat_epa main 1230 1230 O_________P___ hurdat_epa EP171985 13.7000 -116.400 TS 50 0 13.6271 -116.517 2 47 9 246
1985244N14254 1985 80 EP MM RICK 1985-09-03 21:00:00 TS 13.4890 -116.881 main 1278 1278 P_________P___ EP171985 13.5000 -116.863 TS 50 0 13.4562 -116.937 2 48 10 248
1985244N14254 1985 80 EP MM RICK 1985-09-04 00:00:00 TS 13.3000 -117.400 50 hurdat_epa main 1327 1327 O_________O___ hurdat_epa EP171985 13.3000 -117.400 TS 50 0 13.3000 -117.400 2 50 11 251
1985244N14254 1985 80 EP MM RICK 1985-09-04 03:00:00 TS 13.1393 -117.934 main 1377 1377 P_________P___ EP171985 13.1349 -117.942 TS 50 0 13.1526 -117.907 2 51 11 254
1985244N14254 1985 80 EP MM RICK 1985-09-04 06:00:00 TS 13.0050 -118.489 50 hurdat_epa main 1425 1425 O_________P___ hurdat_epa EP171985 13.0000 -118.500 TS 50 0 13.0201 -118.455 2 52 11 257
1985244N14254 1985 80 EP MM RICK 1985-09-04 09:00:00 TS 12.8893 -119.044 main 1468 1468 P_________P___ EP171985 12.8849 -119.050 TS 52 0 12.9025 -119.026 2 53 11 259
1985244N14254 1985 80 EP MM RICK 1985-09-04 12:00:00 TS 12.8000 -119.600 55 hurdat_epa main 1518 1518 O_________O___ hurdat_epa EP171985 12.8000 -119.600 TS 55 0 12.8000 -119.600 2 55 11 262
1985244N14254 1985 80 EP MM RICK 1985-09-04 15:00:00 TS 12.7399 -120.146 main 1562 1562 P_________P___ EP171985 12.7499 -120.150 TS 57 0 12.7100 -120.133 2 56 11 264
1985244N14254 1985 80 EP MM RICK 1985-09-04 18:00:00 TS 12.6835 -120.692 60 hurdat_epa main 1606 1606 O_________P___ hurdat_epa EP171985 12.7000 -120.700 TS 60 0 12.6342 -120.670 2 57 11 262
1985244N14254 1985 80 EP MM RICK 1985-09-04 21:00:00 TS 12.5970 -121.232 main 1652 1652 P_________P___ EP171985 12.6073 -121.235 TS 60 0 12.5662 -121.221 2 58 11 260
1985244N14254 1985 80 EP MM RICK 1985-09-05 00:00:00 TS 12.5000 -121.800 60 hurdat_epa main 1703 1703 O_________O___ hurdat_epa EP171985 12.5000 -121.800 TS 60 0 12.5000 -121.800 2 60 12 260
1985244N14254 1985 80 EP MM RICK 1985-09-05 03:00:00 TS 12.3975 -122.432 main 1751 1751 P_________P___ EP171985 12.3924 -122.435 TS 60 0 12.4127 -122.421 2 58 13 261
1985244N14254 1985 80 EP MM RICK 1985-09-05 06:00:00 TS 12.3068 -123.093 60 hurdat_epa main 1806 1806 O_________P___ hurdat_epa EP171985 12.3000 -123.100 TS 60 0 12.3273 -123.070 2 57 13 263
1985244N14254 1985 80 EP MM RICK 1985-09-05 09:00:00 TS 12.2450 -123.735 main 1855 1855 P_________P___ EP171985 12.2422 -123.735 TS 57 0 12.2532 -123.734 2 56 13 265
1985244N14254 1985 80 EP MM RICK 1985-09-05 12:00:00 TS 12.2000 -124.400 55 hurdat_epa main 1905 1905 O_________O___ hurdat_epa EP171985 12.2000 -124.400 TS 55 0 12.2000 -124.400 2 55 14 266
1985244N14254 1985 80 EP MM RICK 1985-09-05 15:00:00 TS 12.1429 -125.140 main 1964 1964 P_________P___ EP171985 12.1351 -125.165 TS 55 0 12.1661 -125.066 2 55 14 267
1985244N14254 1985 80 EP MM RICK 1985-09-05 18:00:00 TS 12.1137 -125.857 55 hurdat_epa main 2023 2023 O_________P___ hurdat_epa EP171985 12.1000 -125.900 TS 55 0 12.1548 -125.730 2 55 13 270
1985244N14254 1985 80 EP MM RICK 1985-09-05 21:00:00 TS 12.1369 -126.455 main 2068 2068 P_________P___ EP171985 12.1272 -126.480 TS 55 0 12.1661 -126.379 2 55 11 274
1985244N14254 1985 80 EP MM RICK 1985-09-06 00:00:00 TS 12.2000 -127.000 55 hurdat_epa main 2099 2099 O_________O___ hurdat_epa EP171985 12.2000 -127.000 TS 55 0 12.2000 -127.000 2 55 11 278
1985244N14254 1985 80 EP MM RICK 1985-09-06 03:00:00 TS 12.2898 -127.554 main 2139 2139 P_________P___ EP171985 12.2999 -127.550 TS 55 0 12.2594 -127.566 2 55 11 280
1985244N14254 1985 80 EP MM RICK 1985-09-06 06:00:00 TS 12.3847 -128.102 55 hurdat_epa main 2171 2171 O_________P___ hurdat_epa EP171985 12.4000 -128.100 TS 55 0 12.3389 -128.107 2 55 11 279
1985244N14254 1985 80 EP MM RICK 1985-09-06 09:00:00 TS 12.4490 -128.643 main 2212 2212 P_________P___ EP171985 12.4573 -128.643 TS 55 0 12.4240 -128.644 2 55 11 276
1985244N14254 1985 80 EP MM RICK 1985-09-06 12:00:00 TS 12.5000 -129.200 55 hurdat_epa main 2251 2251 O_________O___ hurdat_epa EP171985 12.5000 -129.200 TS 55 0 12.5000 -129.200 2 55 11 275
1985244N14254 1985 80 EP MM RICK 1985-09-06 15:00:00 TS 12.5506 -129.801 main 2284 2284 P_________P___ EP171985 12.5500 -129.800 TS 60 0 12.5524 -129.803 2 60 12 275
1985244N14254 1985 80 EP MM RICK 1985-09-06 18:00:00 TS 12.6000 -130.400 65 hurdat_epa main 2326 2326 O_________O___ hurdat_epa EP171985 12.6000 -130.400 HU 65 1 12.6000 -130.400 3 65 11 275
1985244N14254 1985 80 EP MM RICK 1985-09-06 21:00:00 TS 12.6492 -130.958 main 2369 2361 P_________P___ EP171985 12.6498 -130.958 HU 67 1 12.6474 -130.961 3 67 11 275
1985244N14254 1985 80 EP MM RICK 1985-09-07 00:00:00 TS 12.7000 -131.500 70 hurdat_epa main 2398 2398 O_________O___ hurdat_epa EP171985 12.7000 -131.500 HU 70 1 12.7000 -131.500 4 70 11 275
1985244N14254 1985 80 EP MM RICK 1985-09-07 03:00:00 TS 12.7430 -132.054 main 2443 2435 P_________P___ EP171985 12.7424 -132.058 HU 70 1 12.7446 -132.042 4 71 11 275
1985244N14254 1985 80 EP MM RICK 1985-09-07 06:00:00 TS 12.7997 -132.594 70 hurdat_epa main 2473 2430 O_________P___ hurdat_epa EP171985 12.8000 -132.600 HU 70 1 12.7986 -132.574 4 72 10 278
1985244N14254 1985 80 EP MM RICK 1985-09-07 09:00:00 TS 12.8833 -133.110 main 2430 2375 P_________P___ EP171985 12.8849 -133.115 HU 72 1 12.8784 -133.095 4 73 10 282
1985244N14254 1985 80 EP MM RICK 1985-09-07 12:00:00 TS 13.0000 -133.600 75 hurdat_epa main 2375 2330 O_________O___ hurdat_epa EP171985 13.0000 -133.600 HU 75 1 13.0000 -133.600 4 75 10 285
1985244N14254 1985 80 EP MM RICK 1985-09-07 15:00:00 TS 13.1302 -134.063 main 2320 2272 P_________P___ EP171985 13.1198 -134.050 HU 82 1 13.1613 -134.102 4 78 10 289
1985244N14254 1985 80 EP MM RICK 1985-09-07 18:00:00 TS 13.3168 -134.522 90 hurdat_epa main 2272 2209 O_________P___ hurdat_epa EP171985 13.3000 -134.500 HU 90 2 13.3672 -134.588 4 82 10 297
1985244N14254 1985 80 EP MM RICK 1985-09-07 21:00:00 TS 13.5924 -135.014 main 2209 2147 P_________P___ EP171985 13.5850 -135.000 HU 90 2 13.6145 -135.055 4 86 11 302
1985244N14254 1985 80 EP MM RICK 1985-09-08 00:00:00 TS 13.9000 -135.500 90 hurdat_epa main 2147 2099 O_________O___ hurdat_epa EP171985 13.9000 -135.500 HU 90 2 13.9000 -135.500 4 90 11 301
1985244N14254 1985 80 EP MM RICK 1985-09-08 03:00:00 TS 14.1490 -135.960 main 2089 2037 P_________P___ EP171985 14.1274 -135.973 HU 95 2 14.2137 -135.922 4 96 10 302
1985244N14254 1985 80 EP MM RICK 1985-09-08 06:00:00 TS 14.4405 -136.381 100 hurdat_epa main 2037 1992 O_________P___ hurdat_epa EP171985 14.4000 -136.400 HU 100 3 14.5620 -136.323 4 102 10 313
1985244N14254 1985 80 EP MM RICK 1985-09-08 09:00:00 TS 14.8585 -136.746 main 1989 1935 P_________P___ EP171985 14.8348 -136.758 HU 107 3 14.9293 -136.712 4 108 11 321
1985244N14254 1985 80 EP MM RICK 1985-09-08 12:00:00 TS 15.3000 -137.100 115 hurdat_epa main 1935 1884 O_________O___ hurdat_epa EP171985 15.3000 -137.100 HU 115 4 15.3000 -137.100 4 115 11 318
1985244N14254 1985 80 EP MM RICK 1985-09-08 15:00:00 TS 15.6673 -137.496 main 1881 1831 P_________P___ EP171985 15.6650 -137.493 HU 117 4 15.6742 -137.504 4 116 11 313
1985244N14254 1985 80 EP MM RICK 1985-09-08 18:00:00 TS 16.0112 -137.902 120 hurdat_epa main 1831 1778 O_________P___ hurdat_epa EP171985 16.0000 -137.900 HU 120 4 16.0448 -137.907 4 117 11 312
1985244N14254 1985 80 EP MM RICK 1985-09-08 21:00:00 TS 16.3720 -138.307 main 1778 1729 P_________P___ EP171985 16.3650 -138.308 HU 120 4 16.3930 -138.307 4 118 10 312
1985244N14254 1985 80 EP MM RICK 1985-09-09 00:00:00 TS 16.7000 -138.700 120 hurdat_epa main 1729 1691 O_________O___ hurdat_epa EP171985 16.7000 -138.700 HU 120 4 16.7000 -138.700 4 120 9 310
1985244N14254 1985 80 EP MM RICK 1985-09-09 03:00:00 TS 16.9685 -139.056 main 1680 1645 P_________P___ EP171985 16.9799 -139.050 HU 122 4 16.9346 -139.075 4 121 8 305
1985244N14254 1985 80 EP MM RICK 1985-09-09 06:00:00 TS 17.1824 -139.411 125 hurdat_epa main 1645 1601 O_________P___ hurdat_epa EP171985 17.2000 -139.400 HU 125 4 17.1294 -139.444 4 122 8 298
1985244N14254 1985 80 EP MM RICK 1985-09-09 09:00:00 TS 17.3399 -139.798 main 1601 1555 P_________P___ EP171985 17.3500 -139.793 HU 125 4 17.3096 -139.816 4 123 8 293
1985244N14254 1985 80 EP CP RICK 1985-09-09 12:00:00 TS 17.5000 -140.188 125 hurdat_epa main 1555 1509 O_________O___ hurdat_epa EP171985 17.5000 -140.200 HU 125 4 17.5000 -140.200 4 125 9 298
1985244N14254 1985 80 EP CP RICK 1985-09-09 15:00:00 TS 17.7359 -140.585 main 1509 1462 P_________P___ EP171985 17.7349 -140.593 HU 125 4 17.7318 -140.635 4 125 9 303
1985244N14254 1985 80 EP CP RICK 1985-09-09 18:00:00 TS 17.9953 -141.001 125 hurdat_epa main 1462 1417 O_________P___ hurdat_epa EP171985 18.0000 -141.000 HU 125 4 17.9778 -141.080 4 125 10 302
1985244N14254 1985 80 EP CP RICK 1985-09-09 21:00:00 TS 18.2470 -141.455 main 1406 1360 P_________P___ EP171985 18.2501 -141.465 HU 125 4 18.2349 -141.510 4 125 10 301
1985244N14254 1985 80 EP CP RICK 1985-09-10 00:00:00 TS 18.5000 -141.880 125 hurdat_epa main 1360 1326 O_________O___ hurdat_epa EP171985 18.5000 -141.900 HU 125 4 18.5000 -141.900 4 125 9 305
1985244N14254 1985 80 EP CP RICK 1985-09-10 03:00:00 TS 18.7448 -142.206 main 1326 1292 P_________P___ EP171985 18.7424 -142.230 HU 117 4 18.7470 -142.215 4 117 8 311
1985244N14254 1985 80 EP CP RICK 1985-09-10 06:00:00 TS 19.0009 -142.478 110 hurdat_epa main 1292 1269 O_________P___ hurdat_epa EP171985 19.0000 -142.500 HU 110 3 19.0043 -142.489 4 110 7 317
1985244N14254 1985 80 EP CP RICK 1985-09-10 09:00:00 TS 19.2718 -142.733 main 1269 1236 P_________P___ EP171985 19.2774 -142.743 HU 102 3 19.2845 -142.743 4 102 8 320
1985244N14254 1985 80 EP CP RICK 1985-09-10 12:00:00 TS 19.5800 -143.000 95 hurdat_epa main 1236 1204 O_________O___ hurdat_epa EP171985 19.6000 -143.000 HU 95 2 19.6000 -143.000 4 95 9 319
1985244N14254 1985 80 EP CP RICK 1985-09-10 15:00:00 TS 19.9378 -143.340 main 1204 1163 P_________P___ EP171985 19.9851 -143.350 HU 87 2 19.9560 -143.301 4 88 10 319
1985244N14254 1985 80 EP CP RICK 1985-09-10 18:00:00 TS 20.3295 -143.682 80 hurdat_epa main 1163 1144 O_________P___ hurdat_epa EP171985 20.4000 -143.700 HU 80 1 20.3476 -143.608 4 82 10 324
1985244N14254 1985 80 EP CP RICK 1985-09-10 21:00:00 TS 20.7284 -143.952 main 1135 1118 P_________P___ EP171985 20.7998 -143.950 HU 75 1 20.7654 -143.910 4 76 10 328
1985244N14254 1985 80 EP CP RICK 1985-09-11 00:00:00 TS 21.1400 -144.220 70 hurdat_epa main 1119 1085 O_________O___ hurdat_epa EP171985 21.2000 -144.200 HU 70 1 21.2000 -144.200 4 70 10 324
1985244N14254 1985 80 EP CP RICK 1985-09-11 03:00:00 TS 21.5388 -144.580 main 1085 1063 P_________P___ EP171985 21.5852 -144.565 HU 65 1 21.6033 -144.532 4 67 10 322
1985244N14254 1985 80 EP CP RICK 1985-09-11 06:00:00 TS 21.9650 -144.908 60 hurdat_epa main 1066 1051 O_________P___ hurdat_epa EP171985 22.0000 -144.900 TS 60 0 22.0252 -144.840 4 65 10 330
1985244N14254 1985 80 EP CP RICK 1985-09-11 09:00:00 TS 22.4283 -145.130 main 1057 1051 P_________P___ EP171985 22.4624 -145.117 TS 60 0 22.4845 -145.079 4 62 10 344
1985244N14254 1985 80 EP CP RICK 1985-09-11 12:00:00 TS 22.9600 -145.220 60 hurdat_epa main 1068 1068 O_________O___ hurdat_epa EP171985 23.0000 -145.200 TS 60 0 23.0000 -145.200 2 60 12 357
1985244N14254 1985 80 EP CP RICK 1985-09-11 15:00:00 TS 23.5773 -145.187 main 1092 1092 P_________P___ EP171985 23.6274 -145.160 TS 52 0 23.5845 -145.172 2 52 13 8
1985244N14254 1985 80 EP CP RICK 1985-09-11 18:00:00 TS 24.2451 -145.024 45 hurdat_epa main 1139 1139 O_________P___ hurdat_epa EP171985 24.3000 -145.000 TS 45 0 24.2254 -145.020 2 45 14 16
1985244N14254 1985 80 EP CP RICK 1985-09-11 21:00:00 TS 24.9149 -144.767 main 1192 1192 P_________P___ EP171985 24.9576 -144.768 TS 37 0 24.9036 -144.782 2 37 14 21
1985244N14254 1985 80 EP CP RICK 1985-09-12 00:00:00 TS 25.5800 -144.460 30 hurdat_epa main 1257 O_________O___ hurdat_epa EP171985 25.6000 -144.500 TD 30 -1 25.6000 -144.500 1 30 14 23

IBTrACS Databaseについて

本データベースは、米国NOAAが公開する1842年以降の世界の熱帯低気圧のベストトラックデータアーカイブInternational Best Track Archive for Climate Stewardship (IBTrACS)を、ウェブで閲覧しやすい形式に変換したものです。

最終更新日:2021-10-08